Time;durP1;ratioP1;P1;durP2;ratioP2;P2;SDS_P1;SDS_P2;PMS_P1;PMS_P2;Temp;Humidity;BMP_temperature;BMP_pressure;BME280_temperature;BME280_humidity;BME280_pressure;Samples;Min_cycle;Max_cycle;Signal;HPM_P1;HPM_P2
2021/08/14 00:01:10;;;;;;;17.93;8.97;;;22.00;81.70;;;;;;5048609;28;20572;-73
2021/08/14 00:03:36;;;;;;;16.47;9.27;;;22.00;81.70;;;;;;5044200;28;20709;-74
2021/08/14 00:06:02;;;;;;;11.27;7.63;;;22.00;81.50;;;;;;5045766;28;20475;-74
2021/08/14 00:08:27;;;;;;;13.27;8.40;;;22.00;81.70;;;;;;5041550;28;20202;-74
2021/08/14 00:10:53;;;;;;;12.33;7.97;;;22.00;81.70;;;;;;5042453;28;20206;-73
2021/08/14 00:13:19;;;;;;;14.00;8.27;;;21.90;81.90;;;;;;5043115;28;20191;-73
2021/08/14 00:15:45;;;;;;;12.93;8.67;;;21.90;81.90;;;;;;5048564;28;20191;-74
2021/08/14 00:18:10;;;;;;;12.20;7.60;;;21.90;81.80;;;;;;5041449;28;20186;-74
2021/08/14 00:20:36;;;;;;;12.77;8.63;;;21.90;82.50;;;;;;5044991;28;20235;-73
2021/08/14 00:23:02;;;;;;;13.10;8.47;;;21.80;82.80;;;;;;5043714;28;20216;-74
2021/08/14 00:25:28;;;;;;;14.20;7.70;;;21.80;83.30;;;;;;5047745;28;20190;-73
2021/08/14 00:27:54;;;;;;;13.50;8.70;;;21.60;84.30;;;;;;5041515;28;20270;-74
2021/08/14 00:30:20;;;;;;;16.73;8.63;;;21.50;84.60;;;;;;5050724;28;20207;-72
2021/08/14 00:32:46;;;;;;;15.30;8.53;;;21.40;85.00;;;;;;5049395;28;20450;-74
2021/08/14 00:35:11;;;;;;;13.17;8.40;;;21.30;85.30;;;;;;5041376;28;20450;-73
2021/08/14 00:37:38;;;;;;;15.67;8.80;;;21.20;85.60;;;;;;5048507;28;20273;-73
2021/08/14 00:40:05;;;;;;;12.70;9.10;;;21.20;85.90;;;;;;5043146;28;20210;-72
2021/08/14 00:42:30;;;;;;;14.77;9.67;;;21.10;86.20;;;;;;5048620;28;21085;-72
2021/08/14 00:44:58;;;;;;;12.93;9.80;;;21.00;86.80;;;;;;5046590;28;20511;-74
2021/08/14 00:47:25;;;;;;;17.00;9.20;;;21.00;87.00;;;;;;5046499;28;20189;-73
2021/08/14 00:49:51;;;;;;;17.30;10.43;;;20.80;87.80;;;;;;5044807;28;20489;-73
2021/08/14 00:52:17;;;;;;;16.00;9.40;;;20.70;88.10;;;;;;5043715;28;20461;-74
2021/08/14 00:54:43;;;;;;;14.97;8.80;;;20.70;88.40;;;;;;5043423;28;20454;-75
2021/08/14 00:57:09;;;;;;;12.43;8.53;;;20.60;88.60;;;;;;5043076;28;20186;-73
2021/08/14 00:59:35;;;;;;;15.23;9.13;;;20.60;88.70;;;;;;5046860;28;20579;-73
2021/08/14 01:02:05;;;;;;;15.50;8.87;;;20.60;88.60;;;;;;5041711;28;20755;-73
2021/08/14 01:04:30;;;;;;;11.63;8.00;;;20.60;88.70;;;;;;5036716;28;20421;-73
2021/08/14 01:06:57;;;;;;;14.90;9.40;;;20.60;89.00;;;;;;5041044;28;20433;-74
2021/08/14 01:09:23;;;;;;;14.90;9.20;;;20.50;89.00;;;;;;5044791;28;20185;-73
2021/08/14 01:11:49;;;;;;;16.77;10.00;;;20.50;89.20;;;;;;5037462;28;20472;-73
2021/08/14 01:14:15;;;;;;;11.77;8.03;;;20.50;89.20;;;;;;5050065;28;20866;-73
2021/08/14 01:16:44;;;;;;;14.40;9.37;;;20.40;89.20;;;;;;5052575;28;20412;-73
2021/08/14 01:19:10;;;;;;;15.10;9.60;;;20.40;89.20;;;;;;5057973;28;20186;-73
2021/08/14 01:21:36;;;;;;;12.80;8.77;;;20.40;88.90;;;;;;5057385;28;20414;-72
2021/08/14 01:24:04;;;;;;;14.53;8.33;;;20.40;88.90;;;;;;5056345;28;20496;-73
2021/08/14 01:26:31;;;;;;;16.50;9.93;;;20.40;88.90;;;;;;5045675;28;20420;-74
2021/08/14 01:28:57;;;;;;;12.07;8.23;;;20.40;89.00;;;;;;5045086;28;20519;-73
2021/08/14 01:31:22;;;;;;;13.47;8.27;;;20.50;88.70;;;;;;5044865;28;20882;-73
2021/08/14 01:33:48;;;;;;;15.17;9.10;;;20.50;88.90;;;;;;5045764;28;20205;-73
2021/08/14 01:36:17;;;;;;;15.57;9.27;;;20.50;88.90;;;;;;5042199;28;20263;-73
2021/08/14 01:38:50;;;;;;;13.00;8.67;;;20.50;89.00;;;;;;5046561;28;20186;-74
2021/08/14 01:41:16;;;;;;;13.00;8.97;;;20.50;89.00;;;;;;5042839;28;20458;-74
2021/08/14 01:43:58;;;;;;;14.57;9.17;;;20.50;88.70;;;;;;5051328;28;20836;-74
2021/08/14 01:46:25;;;;;;;14.50;9.17;;;20.50;88.90;;;;;;5046580;28;20482;-73
2021/08/14 01:48:51;;;;;;;14.13;8.40;;;20.50;89.00;;;;;;5043541;28;20415;-74
2021/08/14 01:51:17;;;;;;;16.63;9.10;;;20.50;88.90;;;;;;5049203;28;20443;-75
2021/08/14 01:53:47;;;;;;;13.97;8.50;;;20.50;88.60;;;;;;5049760;28;20193;-73
2021/08/14 01:56:13;;;;;;;13.13;8.40;;;20.50;88.90;;;;;;5049103;28;20185;-74
2021/08/14 01:58:39;;;;;;;13.97;9.13;;;20.50;88.70;;;;;;5049949;28;20473;-73
2021/08/14 02:01:05;;;;;;;15.60;9.30;;;20.60;88.60;;;;;;5042659;28;20444;-73
2021/08/14 02:03:30;;;;;;;14.00;9.20;;;20.60;88.40;;;;;;5047913;28;20801;-73
2021/08/14 02:05:56;;;;;;;13.40;9.03;;;20.50;88.60;;;;;;5051263;28;20236;-73
2021/08/14 02:08:22;;;;;;;18.73;9.47;;;20.50;88.60;;;;;;5050697;28;20220;-74
2021/08/14 02:10:47;;;;;;;12.67;9.07;;;20.50;88.70;;;;;;5048030;28;20234;-74
2021/08/14 02:13:13;;;;;;;13.03;8.80;;;20.50;88.90;;;;;;5048865;28;20645;-75
2021/08/14 02:15:39;;;;;;;13.40;8.73;;;20.50;88.70;;;;;;5044014;28;20272;-73
2021/08/14 02:18:05;;;;;;;15.90;9.60;;;20.50;88.60;;;;;;5044749;28;20240;-72
2021/08/14 02:20:30;;;;;;;16.17;9.97;;;20.50;88.60;;;;;;5046230;28;20204;-72
2021/08/14 02:22:56;;;;;;;14.57;8.77;;;20.40;89.00;;;;;;5042195;28;20255;-73
2021/08/14 02:25:22;;;;;;;15.00;9.20;;;20.30;89.50;;;;;;5045146;28;20281;-72
2021/08/14 02:27:47;;;;;;;18.87;9.83;;;20.20;89.90;;;;;;5042314;28;20303;-74
2021/08/14 02:30:13;;;;;;;18.93;9.57;;;20.10;90.10;;;;;;5044085;28;20559;-73
2021/08/14 02:32:39;;;;;;;15.27;8.97;;;20.00;90.40;;;;;;5047231;28;20739;-74
2021/08/14 02:35:05;;;;;;;14.90;8.87;;;20.00;90.50;;;;;;5038011;28;20455;-73
2021/08/14 02:37:31;;;;;;;16.50;9.43;;;19.90;90.70;;;;;;5047972;28;20185;-73
2021/08/14 02:39:56;;;;;;;14.87;8.80;;;20.00;90.50;;;;;;5050053;28;20962;-73
2021/08/14 02:42:22;;;;;;;16.50;9.10;;;19.90;90.50;;;;;;5045780;28;20208;-74
2021/08/14 02:44:48;;;;;;;20.53;9.80;;;19.90;90.70;;;;;;5048781;28;20191;-72
2021/08/14 02:47:13;;;;;;;15.00;9.10;;;19.90;90.80;;;;;;5044418;28;20188;-74
2021/08/14 02:49:39;;;;;;;12.07;7.90;;;19.90;90.60;;;;;;5049265;28;20563;-75
2021/08/14 02:52:05;;;;;;;14.33;8.77;;;20.00;90.70;;;;;;5045313;28;20234;-72
2021/08/14 02:54:31;;;;;;;14.73;9.10;;;19.90;90.70;;;;;;5049969;28;20207;-73
2021/08/14 02:56:57;;;;;;;15.40;9.07;;;19.80;91.10;;;;;;5038716;28;20435;-74
2021/08/14 02:59:23;;;;;;;16.17;9.57;;;19.80;91.20;;;;;;5042678;28;20216;-75
2021/08/14 03:01:49;;;;;;;16.37;9.60;;;19.70;91.30;;;;;;5047388;28;20218;-75
2021/08/14 03:04:14;;;;;;;15.10;9.17;;;19.70;91.30;;;;;;5040882;28;20276;-73
2021/08/14 03:06:40;;;;;;;15.97;8.60;;;19.70;91.40;;;;;;5046033;28;20184;-74
2021/08/14 03:09:08;;;;;;;17.10;10.20;;;19.70;91.40;;;;;;5046695;28;20714;-73
2021/08/14 03:11:35;;;;;;;15.50;8.80;;;19.70;91.50;;;;;;5044073;28;20223;-73
2021/08/14 03:14:01;;;;;;;11.70;8.10;;;19.60;91.60;;;;;;5046824;28;20423;-74
2021/08/14 03:16:27;;;;;;;11.90;9.27;;;19.70;91.50;;;;;;5046482;28;20422;-74
2021/08/14 03:18:53;;;;;;;14.30;8.80;;;19.70;91.20;;;;;;5043627;28;20216;-74
2021/08/14 03:21:18;;;;;;;18.00;9.60;;;19.70;91.20;;;;;;5045224;28;20560;-73
2021/08/14 03:23:44;;;;;;;13.57;9.00;;;19.70;91.10;;;;;;5041975;28;20991;-74
2021/08/14 03:26:10;;;;;;;15.33;8.37;;;19.70;91.20;;;;;;5044309;28;20173;-74
2021/08/14 03:28:36;;;;;;;19.60;9.70;;;19.80;91.10;;;;;;5039798;28;20246;-73
2021/08/14 03:31:02;;;;;;;15.10;9.00;;;19.80;91.00;;;;;;5041963;28;20287;-73
2021/08/14 03:33:27;;;;;;;15.47;9.40;;;19.80;91.10;;;;;;5049176;28;20182;-73
2021/08/14 03:35:53;;;;;;;15.73;9.20;;;19.80;90.80;;;;;;5042306;28;20196;-73
2021/08/14 03:38:19;;;;;;;14.63;9.13;;;19.80;90.60;;;;;;5042890;28;20250;-73
2021/08/14 03:40:44;;;;;;;15.80;10.10;;;19.70;90.70;;;;;;5039051;28;20228;-74
2021/08/14 03:43:10;;;;;;;17.17;8.67;;;19.60;91.00;;;;;;5040684;28;20709;-74
2021/08/14 03:45:36;;;;;;;15.43;9.20;;;19.60;91.10;;;;;;5047305;28;20176;-75
2021/08/14 03:48:02;;;;;;;13.70;8.37;;;19.60;91.10;;;;;;5038106;28;20239;-74
2021/08/14 03:50:27;;;;;;;14.97;9.87;;;19.60;91.10;;;;;;5046835;28;20205;-74
2021/08/14 03:52:53;;;;;;;14.13;9.30;;;19.60;90.90;;;;;;5037965;28;20193;-74
2021/08/14 03:55:19;;;;;;;14.90;8.40;;;19.60;90.90;;;;;;5042666;28;20215;-74
2021/08/14 03:57:44;;;;;;;20.13;10.17;;;19.60;90.90;;;;;;5040686;28;20192;-74
2021/08/14 04:00:11;;;;;;;15.83;9.33;;;19.60;91.00;;;;;;5043463;28;20293;-73
2021/08/14 04:02:36;;;;;;;16.10;9.23;;;19.50;91.10;;;;;;5046007;28;20680;-73
2021/08/14 04:05:02;;;;;;;14.87;8.90;;;19.50;91.40;;;;;;5041903;28;20426;-73
2021/08/14 04:07:28;;;;;;;17.20;9.13;;;19.50;91.40;;;;;;5044092;28;20171;-73
2021/08/14 04:09:54;;;;;;;11.93;8.53;;;19.50;91.50;;;;;;5041051;28;20601;-73
2021/08/14 04:12:19;;;;;;;14.13;8.97;;;19.50;91.60;;;;;;5042299;28;20260;-73
2021/08/14 04:14:45;;;;;;;15.43;9.37;;;19.50;91.80;;;;;;5048915;28;20188;-73
2021/08/14 04:17:11;;;;;;;12.90;8.00;;;19.60;91.80;;;;;;5040956;28;20773;-74
2021/08/14 04:19:36;;;;;;;14.63;8.50;;;19.60;91.60;;;;;;5046327;28;20203;-72
2021/08/14 04:22:02;;;;;;;16.87;8.80;;;19.60;91.70;;;;;;5039076;28;20683;-73
2021/08/14 04:24:28;;;;;;;12.63;8.93;;;19.60;91.70;;;;;;5047483;28;20176;-73
2021/08/14 04:26:54;;;;;;;18.37;9.67;;;19.70;91.60;;;;;;5042517;28;20415;-73
2021/08/14 04:29:20;;;;;;;14.20;9.23;;;19.70;91.10;;;;;;5045243;28;20423;-73
2021/08/14 04:31:46;;;;;;;12.63;8.43;;;19.60;90.70;;;;;;5036388;28;20182;-73
2021/08/14 04:34:12;;;;;;;15.23;8.60;;;19.60;90.60;;;;;;5041217;28;20188;-73
2021/08/14 04:36:38;;;;;;;14.03;9.73;;;19.60;90.60;;;;;;5036264;28;20432;-73
2021/08/14 04:39:03;;;;;;;15.33;9.07;;;19.60;90.60;;;;;;5040612;28;20780;-74
2021/08/14 04:41:29;;;;;;;13.60;9.07;;;19.50;90.90;;;;;;5035647;28;20688;-72
2021/08/14 04:43:55;;;;;;;14.63;9.13;;;19.30;91.40;;;;;;5037862;28;20219;-74
2021/08/14 04:46:20;;;;;;;16.23;9.30;;;19.20;92.00;;;;;;5036778;28;20185;-73
2021/08/14 04:48:46;;;;;;;13.50;9.60;;;19.20;92.40;;;;;;5035766;28;20207;-73
2021/08/14 04:51:12;;;;;;;18.07;10.50;;;19.20;92.30;;;;;;5034656;28;20280;-73
2021/08/14 04:53:37;;;;;;;17.13;9.80;;;19.20;92.20;;;;;;5043457;28;20237;-72
2021/08/14 04:56:03;;;;;;;13.80;9.60;;;19.20;92.00;;;;;;5030907;28;20623;-74
2021/08/14 04:58:29;;;;;;;18.70;10.13;;;19.20;92.20;;;;;;5041477;28;20189;-74
2021/08/14 05:00:55;;;;;;;19.17;9.10;;;19.30;92.00;;;;;;5041308;28;20453;-73
2021/08/14 05:03:20;;;;;;;15.20;8.80;;;19.30;91.70;;;;;;5038009;28;20248;-73
2021/08/14 05:05:47;;;;;;;17.57;10.17;;;19.40;91.80;;;;;;5039595;28;20272;-73
2021/08/14 05:08:13;;;;;;;14.13;9.80;;;19.40;91.60;;;;;;5035335;28;20177;-75
2021/08/14 05:10:39;;;;;;;15.90;9.47;;;19.40;91.50;;;;;;5040357;28;20433;-73
2021/08/14 05:13:05;;;;;;;16.17;8.83;;;19.50;91.50;;;;;;5042102;28;20275;-73
2021/08/14 05:15:31;;;;;;;17.53;10.43;;;19.50;91.40;;;;;;5051960;28;20284;-73
2021/08/14 05:17:56;;;;;;;15.80;8.73;;;19.50;91.30;;;;;;5051790;28;20423;-74
2021/08/14 05:20:22;;;;;;;15.33;9.77;;;19.60;91.40;;;;;;5047220;28;20505;-73
2021/08/14 05:22:48;;;;;;;15.13;9.67;;;19.60;91.40;;;;;;5051878;28;20250;-74
2021/08/14 05:25:13;;;;;;;16.50;9.40;;;19.70;91.10;;;;;;5051125;28;20235;-72
2021/08/14 05:27:39;;;;;;;14.47;9.80;;;19.80;90.80;;;;;;5043480;28;20185;-73
2021/08/14 05:30:05;;;;;;;13.67;9.07;;;19.80;90.50;;;;;;5042110;28;20208;-73
2021/08/14 05:32:31;;;;;;;14.43;9.90;;;19.80;90.50;;;;;;5050917;28;20212;-74
2021/08/14 05:34:57;;;;;;;13.00;8.83;;;19.90;90.40;;;;;;5044665;28;21026;-74
2021/08/14 05:37:23;;;;;;;14.90;9.43;;;20.00;90.40;;;;;;5048593;28;20534;-73
2021/08/14 05:39:49;;;;;;;14.97;9.87;;;20.10;89.90;;;;;;5044455;28;20204;-74
2021/08/14 05:42:14;;;;;;;18.87;9.50;;;20.20;89.30;;;;;;5047633;28;20209;-74
2021/08/14 05:44:40;;;;;;;16.27;10.03;;;20.20;89.30;;;;;;5042977;28;20489;-73
2021/08/14 05:47:06;;;;;;;17.80;9.60;;;20.20;89.60;;;;;;5046073;28;20185;-73
2021/08/14 05:49:32;;;;;;;17.03;11.37;;;20.20;89.60;;;;;;5042585;28;20207;-74
2021/08/14 05:51:59;;;;;;;16.10;9.30;;;20.30;89.20;;;;;;5044576;28;20658;-74
2021/08/14 05:54:25;;;;;;;14.40;9.70;;;20.30;89.00;;;;;;5046339;28;20173;-73
2021/08/14 05:56:51;;;;;;;18.00;10.23;;;20.50;88.40;;;;;;5043808;28;20469;-73
2021/08/14 05:59:16;;;;;;;17.40;10.67;;;20.50;87.80;;;;;;5051231;28;20261;-74
2021/08/14 06:01:42;;;;;;;16.90;10.57;;;20.60;87.80;;;;;;5049947;28;20659;-72
2021/08/14 06:04:08;;;;;;;14.27;8.73;;;20.60;87.80;;;;;;5041397;28;20182;-73
2021/08/14 06:06:34;;;;;;;16.30;9.60;;;20.70;87.80;;;;;;5048567;28;20199;-73
2021/08/14 06:08:59;;;;;;;16.87;9.20;;;20.70;88.00;;;;;;5039645;28;20189;-73
2021/08/14 06:11:25;;;;;;;16.83;10.60;;;20.80;88.00;;;;;;5046091;28;20263;-73
2021/08/14 06:13:51;;;;;;;13.57;8.93;;;20.80;87.70;;;;;;5045838;28;20182;-74
2021/08/14 06:16:16;;;;;;;16.37;9.93;;;20.90;87.40;;;;;;5050681;28;20193;-76
2021/08/14 06:18:42;;;;;;;12.80;9.30;;;21.00;87.30;;;;;;5050698;28;20640;-73
2021/08/14 06:21:09;;;;;;;14.13;9.67;;;21.10;87.30;;;;;;5049531;28;20698;-74
2021/08/14 06:23:35;;;;;;;15.77;9.33;;;21.10;86.90;;;;;;5050648;28;20456;-74
2021/08/14 06:26:01;;;;;;;13.30;9.03;;;21.20;86.30;;;;;;5039006;28;20449;-73
2021/08/14 06:28:26;;;;;;;12.23;8.90;;;21.30;86.00;;;;;;5047652;28;20178;-73
2021/08/14 06:30:52;;;;;;;16.37;9.40;;;21.30;86.00;;;;;;5048248;28;20283;-73
2021/08/14 06:33:18;;;;;;;16.23;9.93;;;21.30;85.90;;;;;;5042462;28;20419;-74
2021/08/14 06:35:44;;;;;;;13.33;9.20;;;21.40;85.30;;;;;;5039925;28;21046;-74
2021/08/14 06:38:09;;;;;;;13.23;9.00;;;21.50;84.60;;;;;;5039532;28;20269;-73
2021/08/14 06:40:35;;;;;;;14.03;9.57;;;21.50;84.90;;;;;;5050477;28;20700;-73
2021/08/14 06:43:01;;;;;;;18.63;9.07;;;21.60;85.00;;;;;;5037260;28;20242;-74
2021/08/14 06:45:26;;;;;;;17.73;10.20;;;21.60;84.60;;;;;;5046818;28;20186;-73
2021/08/14 06:47:52;;;;;;;15.53;8.70;;;21.80;84.30;;;;;;5040130;28;20187;-74
2021/08/14 06:50:18;;;;;;;14.47;9.57;;;21.80;84.40;;;;;;5044964;28;20210;-74
2021/08/14 06:52:44;;;;;;;15.80;9.43;;;21.90;84.40;;;;;;5038843;28;20196;-74
2021/08/14 06:55:10;;;;;;;14.90;9.30;;;22.00;84.10;;;;;;5043646;28;20576;-73
2021/08/14 06:57:36;;;;;;;15.10;9.87;;;22.10;84.10;;;;;;5042314;28;20428;-72
2021/08/14 07:00:04;;;;;;;16.07;9.70;;;22.20;83.70;;;;;;5045665;28;20879;-74
2021/08/14 07:02:30;;;;;;;17.50;10.13;;;22.30;83.60;;;;;;5040488;28;20290;-73
2021/08/14 07:04:55;;;;;;;17.90;9.80;;;22.40;83.10;;;;;;5044051;28;20856;-74
2021/08/14 07:07:21;;;;;;;15.57;9.93;;;22.50;82.80;;;;;;5036834;28;20195;-74
2021/08/14 07:09:47;;;;;;;15.07;9.23;;;22.60;82.80;;;;;;5043094;28;20202;-73
2021/08/14 07:12:14;;;;;;;18.90;10.97;;;22.60;83.00;;;;;;5042107;28;20185;-73
2021/08/14 07:14:40;;;;;;;20.70;11.00;;;22.60;83.10;;;;;;5041860;28;20182;-73
2021/08/14 07:17:06;;;;;;;16.70;10.40;;;22.70;83.30;;;;;;5045775;28;20908;-74
2021/08/14 07:19:32;;;;;;;18.10;10.20;;;22.70;83.30;;;;;;5048574;28;20454;-72
2021/08/14 07:21:58;;;;;;;18.80;11.50;;;22.80;83.00;;;;;;5043465;28;21104;-74
2021/08/14 07:24:24;;;;;;;18.27;11.50;;;22.90;82.80;;;;;;5047037;28;20191;-75
2021/08/14 07:26:49;;;;;;;18.13;11.30;;;23.00;82.80;;;;;;5037651;28;20179;-73
2021/08/14 07:29:15;;;;;;;21.77;12.00;;;23.10;82.50;;;;;;5044884;28;20274;-74
2021/08/14 07:31:41;;;;;;;18.83;11.10;;;23.30;82.20;;;;;;5041764;28;20194;-74
2021/08/14 07:34:06;;;;;;;15.27;10.33;;;23.30;82.40;;;;;;5043411;28;20272;-73
2021/08/14 07:36:32;;;;;;;19.40;11.60;;;23.40;82.10;;;;;;5037609;28;20638;-73
2021/08/14 07:38:58;;;;;;;17.63;12.20;;;23.60;81.90;;;;;;5044041;28;20186;-74
2021/08/14 07:41:23;;;;;;;16.73;10.77;;;23.70;81.50;;;;;;5037355;28;20249;-73
2021/08/14 07:43:49;;;;;;;15.50;11.33;;;23.70;81.20;;;;;;5042060;28;20215;-74
2021/08/14 07:46:15;;;;;;;16.60;11.10;;;23.80;81.40;;;;;;5041852;28;20187;-74
2021/08/14 07:48:40;;;;;;;16.53;11.57;;;23.90;81.20;;;;;;5041313;28;20255;-74
2021/08/14 07:51:06;;;;;;;16.53;11.77;;;24.00;80.90;;;;;;5047302;28;20212;-73
2021/08/14 07:53:32;;;;;;;16.80;10.97;;;24.10;80.50;;;;;;5048505;28;20198;-73
2021/08/14 07:55:59;;;;;;;15.50;11.33;;;24.20;79.90;;;;;;5039646;28;20719;-75
2021/08/14 07:58:25;;;;;;;18.80;10.93;;;24.30;79.60;;;;;;5046820;28;20713;-73
2021/08/14 08:00:51;;;;;;;19.40;11.17;;;24.30;79.20;;;;;;5037632;28;20456;-73
2021/08/14 08:03:16;;;;;;;19.87;11.00;;;24.40;79.20;;;;;;5037244;28;20565;-74
2021/08/14 08:05:42;;;;;;;15.60;10.27;;;24.40;78.90;;;;;;5038626;28;20192;-74
2021/08/14 08:08:08;;;;;;;18.73;11.40;;;24.50;78.60;;;;;;5033967;28;20187;-73
2021/08/14 08:10:35;;;;;;;19.73;12.03;;;24.60;78.30;;;;;;5037074;28;20231;-75
2021/08/14 08:13:01;;;;;;;18.90;11.13;;;24.60;78.40;;;;;;5039895;28;20204;-73
2021/08/14 08:15:27;;;;;;;18.17;10.50;;;24.70;78.30;;;;;;5038943;28;21036;-73
2021/08/14 08:17:53;;;;;;;18.10;10.97;;;24.80;77.10;;;;;;5043636;28;20423;-73
2021/08/14 08:20:20;;;;;;;19.77;11.40;;;24.90;77.10;;;;;;5048904;28;20240;-76
2021/08/14 08:22:46;;;;;;;18.13;10.73;;;25.00;76.20;;;;;;5042797;28;20214;-73
2021/08/14 08:25:14;;;;;;;15.47;9.70;;;25.10;74.80;;;;;;5043560;28;20949;-74
2021/08/14 08:27:41;;;;;;;16.33;9.37;;;25.20;73.00;;;;;;5040705;28;20442;-74
2021/08/14 08:30:09;;;;;;;14.13;9.27;;;25.20;72.40;;;;;;5039659;28;20465;-74
2021/08/14 08:32:36;;;;;;;17.17;10.27;;;25.20;72.60;;;;;;5046169;28;20835;-73
2021/08/14 08:35:02;;;;;;;15.73;10.93;;;25.30;73.30;;;;;;5037154;28;20446;-75
2021/08/14 08:37:28;;;;;;;18.97;11.13;;;25.40;74.50;;;;;;5043825;28;20931;-73
2021/08/14 08:39:53;;;;;;;15.97;10.43;;;25.50;74.00;;;;;;5042319;28;20536;-73
2021/08/14 08:42:19;;;;;;;15.23;10.10;;;25.60;72.10;;;;;;5045814;28;20587;-73
2021/08/14 08:44:45;;;;;;;15.33;9.97;;;25.60;71.60;;;;;;5044516;28;20276;-75
2021/08/14 08:47:12;;;;;;;13.87;9.40;;;25.70;71.80;;;;;;5046113;28;20519;-73
2021/08/14 08:49:58;;;;;;;13.90;9.37;;;25.70;71.60;;;;;;5043134;28;20202;-74
2021/08/14 08:52:25;;;;;;;17.03;10.57;;;25.90;70.40;;;;;;5044870;28;20436;-73
2021/08/14 08:54:52;;;;;;;18.50;9.90;;;26.00;70.40;;;;;;5048261;28;20512;-75
2021/08/14 08:57:18;;;;;;;17.03;10.60;;;26.00;70.20;;;;;;5042434;28;20426;-74
2021/08/14 08:59:45;;;;;;;18.90;11.30;;;26.10;70.20;;;;;;5045771;28;20460;-74
2021/08/14 09:02:28;;;;;;;18.73;10.30;;;26.20;69.50;;;;;;5048576;28;20560;-75
2021/08/14 09:05:04;;;;;;;15.83;9.83;;;26.20;68.60;;;;;;5045342;28;20418;-73
2021/08/14 09:07:30;;;;;;;13.17;9.37;;;26.30;67.00;;;;;;5039720;28;20411;-72
2021/08/14 09:10:00;;;;;;;15.03;9.67;;;26.30;67.30;;;;;;5042850;28;20817;-73
2021/08/14 09:12:45;;;;;;;15.57;9.80;;;26.40;67.60;;;;;;5046046;28;20285;-75
2021/08/14 09:15:26;;;;;;;14.17;8.70;;;26.50;67.20;;;;;;5050609;28;20445;-73
2021/08/14 09:18:03;;;;;;;14.00;9.47;;;26.50;67.00;;;;;;5049815;28;20426;-72
2021/08/14 09:20:29;;;;;;;14.57;8.90;;;26.70;65.70;;;;;;5041763;28;20786;-75
2021/08/14 09:23:05;;;;;;;12.30;8.83;;;26.70;65.00;;;;;;5050090;28;20470;-73
2021/08/14 09:25:46;;;;;;;14.30;8.67;;;26.80;65.30;;;;;;5048106;28;20504;-73
2021/08/14 09:28:14;;;;;;;14.97;8.30;;;26.80;64.70;;;;;;5046801;28;20780;-73
2021/08/14 09:30:48;;;;;;;13.80;8.63;;;26.80;63.20;;;;;;5047692;28;20457;-73
2021/08/14 09:33:26;;;;;;;13.33;8.60;;;26.80;63.70;;;;;;5048120;28;20554;-73
2021/08/14 09:36:01;;;;;;;13.80;8.67;;;26.90;63.10;;;;;;5045314;28;20442;-73
2021/08/14 09:38:42;;;;;;;16.13;8.87;;;27.00;62.30;;;;;;5052059;28;20409;-74
2021/08/14 09:41:18;;;;;;;14.10;9.30;;;27.00;62.30;;;;;;5039467;28;20450;-73
2021/08/14 09:43:47;;;;;;;11.97;8.23;;;27.10;63.10;;;;;;5045300;28;20472;-73
2021/08/14 09:46:13;;;;;;;13.47;7.97;;;27.10;61.90;;;;;;5046652;28;20427;-74
2021/08/14 09:48:39;;;;;;;13.73;8.40;;;27.20;61.90;;;;;;5044232;28;20433;-74
2021/08/14 09:51:24;;;;;;;16.10;9.90;;;27.20;62.00;;;;;;5051376;28;20211;-73
2021/08/14 09:53:54;;;;;;;13.97;8.80;;;27.30;62.20;;;;;;5047697;28;20943;-74
2021/08/14 09:56:23;;;;;;;13.47;9.17;;;27.40;61.60;;;;;;5041606;28;20598;-74
2021/08/14 09:58:52;;;;;;;16.90;9.90;;;27.50;61.50;;;;;;5050440;28;20580;-75
2021/08/14 10:01:18;;;;;;;12.80;9.00;;;27.50;61.70;;;;;;5051214;28;20529;-74
2021/08/14 10:03:45;;;;;;;12.87;9.10;;;27.40;61.90;;;;;;5048553;28;20477;-73
2021/08/14 10:06:13;;;;;;;14.73;9.10;;;27.50;62.20;;;;;;5050354;28;20919;-75
2021/08/14 10:08:40;;;;;;;18.03;9.60;;;27.50;61.50;;;;;;5044711;28;20830;-74
2021/08/14 10:11:10;;;;;;;12.67;8.50;;;27.60;61.30;;;;;;5048008;28;20787;-73
2021/08/14 10:13:38;;;;;;;14.40;9.00;;;27.70;60.70;;;;;;5044403;28;20437;-73
2021/08/14 10:16:04;;;;;;;10.10;8.10;;;27.80;60.90;;;;;;5048147;28;20436;-73
2021/08/14 10:18:30;;;;;;;12.53;8.73;;;27.80;60.30;;;;;;5051111;28;20429;-74
2021/08/14 10:20:56;;;;;;;11.90;8.17;;;28.00;60.40;;;;;;5050640;28;20539;-74
2021/08/14 10:23:23;;;;;;;12.57;8.60;;;28.10;60.60;;;;;;5050707;28;20477;-73
2021/08/14 10:26:11;;;;;;;16.73;9.57;;;28.30;59.60;;;;;;5045388;28;20212;-73
2021/08/14 10:28:54;;;;;;;13.97;9.20;;;28.70;59.10;;;;;;5043361;28;20485;-74
2021/08/14 10:31:34;;;;;;;14.30;8.50;;;29.10;57.70;;;;;;5043556;28;20473;-74
2021/08/14 10:34:20;;;;;;;15.60;9.57;;;29.50;56.00;;;;;;5046377;28;20426;-74
2021/08/14 10:36:47;;;;;;;14.33;8.57;;;29.60;55.80;;;;;;5042063;28;20781;-74
2021/08/14 10:39:16;;;;;;;13.10;9.17;;;29.90;56.10;;;;;;5044491;28;20485;-75
2021/08/14 10:41:43;;;;;;;12.60;9.33;;;30.20;54.60;;;;;;5047041;28;20426;-76
2021/08/14 10:44:09;;;;;;;15.13;8.83;;;30.60;54.50;;;;;;5040974;28;20478;-74
2021/08/14 10:46:48;;;;;;;14.33;10.00;;;31.00;53.70;;;;;;5043774;28;20470;-74
2021/08/14 10:49:20;;;;;;;11.90;9.73;;;31.10;53.60;;;;;;5038935;28;20517;-74
2021/08/14 10:51:48;;;;;;;19.13;10.10;;;31.10;53.40;;;;;;5043857;28;20418;-76
2021/08/14 10:54:34;;;;;;;15.60;9.70;;;31.30;52.90;;;;;;5043031;28;20436;-74
2021/08/14 10:57:11;;;;;;;12.90;9.20;;;31.60;52.20;;;;;;5038027;28;20427;-74
2021/08/14 10:59:37;;;;;;;14.13;9.63;;;31.80;51.80;;;;;;5037438;28;20443;-75
2021/08/14 11:02:12;;;;;;;14.13;9.87;;;32.00;51.40;;;;;;5044573;28;20585;-74
2021/08/14 11:04:42;;;;;;;17.33;9.63;;;32.40;51.20;;;;;;5042348;28;20176;-75
2021/08/14 11:07:17;;;;;;;12.30;9.70;;;32.90;49.90;;;;;;5042866;28;20473;-73
2021/08/14 11:10:06;;;;;;;12.40;8.63;;;33.30;48.50;;;;;;5050311;28;20499;-75
2021/08/14 11:12:35;;;;;;;13.20;9.27;;;33.70;47.80;;;;;;5035267;28;21002;-75
2021/08/14 11:15:14;;;;;;;15.20;10.00;;;33.30;47.80;;;;;;5047555;28;20415;-75
2021/08/14 11:17:41;;;;;;;15.33;10.23;;;32.80;49.30;;;;;;5042953;28;20431;-74
2021/08/14 11:20:31;;;;;;;13.50;9.53;;;33.00;49.10;;;;;;5049938;28;20501;-74
2021/08/14 11:22:58;;;;;;;16.50;10.37;;;33.10;48.30;;;;;;5048960;28;20474;-75
2021/08/14 11:25:36;;;;;;;14.47;9.70;;;33.00;48.50;;;;;;5049062;28;20415;-73
2021/08/14 11:28:08;;;;;;;13.03;9.27;;;32.80;49.00;;;;;;5046494;28;21003;-74
2021/08/14 11:30:44;;;;;;;11.97;8.40;;;32.90;49.10;;;;;;5042526;28;20432;-73
2021/08/14 11:33:11;;;;;;;20.80;9.90;;;33.10;48.60;;;;;;5043705;28;20435;-74
2021/08/14 11:35:40;;;;;;;14.53;9.70;;;33.20;48.60;;;;;;5041414;28;20451;-75
2021/08/14 11:38:10;;;;;;;17.30;9.73;;;33.10;48.20;;;;;;5042023;28;20439;-73
2021/08/14 11:40:38;;;;;;;13.90;9.60;;;33.00;48.60;;;;;;5041783;28;20478;-73
2021/08/14 11:43:13;;;;;;;11.87;9.07;;;32.80;48.60;;;;;;5032148;28;20471;-74
2021/08/14 11:45:41;;;;;;;13.30;9.90;;;32.60;49.50;;;;;;5040257;28;20833;-73
2021/08/14 11:48:17;;;;;;;12.07;9.73;;;32.80;49.10;;;;;;5038198;28;20455;-74
2021/08/14 11:50:48;;;;;;;14.03;10.00;;;32.90;48.60;;;;;;5036868;28;20992;-74
2021/08/14 11:53:27;;;;;;;16.47;10.57;;;32.70;48.60;;;;;;5041724;28;20424;-74
2021/08/14 11:56:03;;;;;;;17.33;10.40;;;31.90;50.50;;;;;;5039925;28;20412;-73
2021/08/14 11:58:30;;;;;;;12.47;9.60;;;31.70;51.00;;;;;;5040620;28;20407;-73
2021/08/14 12:00:55;;;;;;;14.90;10.07;;;32.00;50.90;;;;;;5041506;28;20505;-73
2021/08/14 12:03:21;;;;;;;14.00;9.90;;;32.20;50.20;;;;;;5036599;28;20471;-73
2021/08/14 12:05:48;;;;;;;12.30;9.47;;;32.10;50.20;;;;;;5043810;28;20191;-73
2021/08/14 12:08:35;;;;;;;14.00;9.57;;;31.80;51.40;;;;;;5047428;28;20537;-74
2021/08/14 12:11:04;;;;;;;15.80;10.20;;;31.90;51.30;;;;;;5038516;28;20989;-74
2021/08/14 12:13:30;;;;;;;14.43;9.50;;;32.30;50.60;;;;;;5043788;28;21024;-75
2021/08/14 12:16:37;;;;;;;12.37;9.73;;;32.40;49.90;;;;;;5042947;28;20467;-75
2021/08/14 12:19:14;;;;;;;15.60;10.20;;;32.30;49.90;;;;;;5037066;28;20507;-74
2021/08/14 12:21:41;;;;;;;14.80;9.90;;;32.00;51.00;;;;;;5034075;28;20458;-74
2021/08/14 12:24:07;;;;;;;14.80;10.10;;;31.70;51.20;;;;;;5030311;28;20490;-73
2021/08/14 12:26:33;;;;;;;16.00;10.23;;;31.60;51.60;;;;;;5040879;28;20416;-74
2021/08/14 12:29:10;;;;;;;12.87;9.77;;;31.40;52.00;;;;;;5046897;28;20526;-75
2021/08/14 12:31:53;;;;;;;13.07;9.70;;;31.00;52.50;;;;;;5028472;28;20199;-73
2021/08/14 12:34:22;;;;;;;14.10;10.10;;;31.10;52.90;;;;;;5045704;28;20449;-72
2021/08/14 12:37:02;;;;;;;13.90;10.30;;;31.70;51.40;;;;;;5043472;28;20451;-74
2021/08/14 12:39:46;;;;;;;13.47;9.63;;;32.30;50.50;;;;;;5026567;28;20442;-72